createdAt,value
2019-06-01T00:00:51.175Z,49.72
2019-06-01T00:03:20.608Z,49.45
2019-06-01T00:05:50.035Z,49.46
2019-06-01T00:08:19.418Z,49.12
2019-06-01T00:10:49.449Z,49.03
2019-06-01T00:13:19.118Z,49.12
2019-06-01T00:15:48.565Z,48.95
2019-06-01T00:18:17.991Z,48.61
2019-06-01T00:20:48.638Z,48.59
2019-06-01T00:23:18.501Z,48.70
2019-06-01T00:25:48.678Z,48.76
2019-06-01T00:28:18.133Z,48.49
2019-06-01T00:30:47.944Z,48.58
2019-06-01T00:33:17.406Z,48.46
2019-06-01T00:35:47.476Z,48.34
2019-06-01T00:38:16.952Z,48.50
2019-06-01T00:40:46.357Z,48.40
2019-06-01T00:43:15.738Z,48.37
2019-06-01T00:45:46.247Z,48.30
2019-06-01T00:48:15.978Z,48.29
2019-06-01T00:50:45.329Z,48.29
2019-06-01T00:53:14.736Z,48.39
2019-06-01T00:55:45.999Z,48.38
2019-06-01T00:58:15.514Z,48.35
2019-06-01T01:00:46.122Z,47.98
2019-06-01T01:03:16.049Z,48.10
2019-06-01T01:05:46.942Z,48.01
2019-06-01T01:08:16.550Z,47.85
2019-06-01T01:10:46.860Z,47.95
2019-06-01T01:13:19.228Z,47.88
2019-06-01T01:15:49.293Z,48.26
2019-06-01T01:18:18.832Z,48.08
2019-06-01T01:20:48.338Z,48.18
2019-06-01T01:23:17.720Z,48.27
2019-06-01T01:25:48.316Z,48.18
2019-06-01T01:28:17.670Z,48.39
2019-06-01T01:31:03.105Z,48.55
2019-06-01T01:33:18.754Z,48.61
2019-06-01T01:35:48.130Z,48.59
2019-06-01T01:38:18.796Z,48.77
2019-06-01T01:40:48.220Z,49.11
2019-06-01T01:43:17.624Z,49.16
2019-06-01T01:45:47.045Z,49.41
2019-06-01T01:48:16.532Z,49.83
2019-06-01T01:50:45.930Z,49.98
2019-06-01T01:53:15.342Z,49.91
2019-06-01T01:55:45.099Z,49.98
2019-06-01T01:58:16.839Z,50.33
2019-06-01T02:00:48.455Z,50.50
2019-06-01T02:03:17.892Z,50.53
2019-06-01T02:05:47.532Z,50.62
2019-06-01T02:08:17.018Z,50.87
2019-06-01T02:10:46.398Z,51.05
2019-06-01T02:13:15.756Z,51.25
2019-06-01T02:15:45.115Z,51.38
2019-06-01T02:18:14.513Z,51.79
2019-06-01T02:20:46.040Z,51.89
2019-06-01T02:23:16.269Z,52.12
2019-06-01T02:25:45.651Z,52.15
2019-06-01T02:28:15.073Z,52.34
2019-06-01T02:30:44.727Z,52.80
2019-06-01T02:33:14.086Z,52.41
2019-06-01T02:35:43.502Z,52.23
2019-06-01T02:38:12.975Z,52.53
2019-06-01T02:40:42.464Z,52.38
2019-06-01T02:43:12.254Z,52.16
2019-06-01T02:45:42.108Z,52.25
2019-06-01T02:48:11.658Z,51.86
2019-06-01T02:50:41.355Z,51.94
2019-06-01T02:53:13.172Z,51.39
2019-06-01T02:55:42.589Z,50.75
2019-06-01T02:58:12.172Z,49.94
2019-06-01T03:01:27.465Z,49.24
2019-06-01T03:03:57.687Z,48.16
2019-06-01T03:06:31.996Z,47.09
2019-06-01T03:09:06.534Z,46.41
2019-06-01T03:11:37.239Z,46.12
2019-06-01T03:14:27.908Z,45.70
2019-06-01T03:17:00.046Z,45.65
2019-06-01T03:19:31.673Z,45.20
2019-06-01T03:22:05.665Z,44.47
2019-06-01T03:24:37.866Z,44.63
2019-06-01T03:27:09.087Z,44.60
2019-06-01T03:29:42.761Z,45.12
2019-06-01T03:32:33.256Z,46.00
2019-06-01T03:34:43.502Z,46.33
2019-06-01T03:37:13.406Z,46.54
2019-06-01T03:39:43.106Z,47.16
2019-06-01T03:42:13.049Z,47.70
2019-06-01T03:44:42.455Z,48.23
2019-06-01T03:47:14.175Z,48.56
2019-06-01T03:49:43.640Z,49.44
2019-06-01T03:52:13.165Z,49.59
2019-06-01T03:54:42.572Z,49.87
2019-06-01T03:57:20.697Z,50.39
2019-06-01T03:59:50.138Z,50.24
2019-06-01T04:02:32.455Z,50.53
2019-06-01T04:04:50.685Z,50.91
2019-06-01T04:07:20.254Z,51.09
2019-06-01T04:09:49.632Z,50.87
2019-06-01T04:12:19.054Z,50.96
2019-06-01T04:14:48.427Z,51.21
2019-06-01T04:17:17.969Z,51.07
2019-06-01T04:19:48.469Z,50.91
2019-06-01T04:22:17.835Z,51.41
2019-06-01T04:24:47.252Z,51.70
2019-06-01T04:27:16.661Z,51.25
2019-06-01T04:29:46.166Z,51.56
2019-06-01T04:32:15.588Z,51.81
2019-06-01T04:34:45.009Z,52.12
2019-06-01T04:37:14.884Z,52.01
2019-06-01T04:39:44.289Z,52.08
2019-06-01T04:42:14.020Z,52.36
2019-06-01T04:44:43.453Z,52.69
2019-06-01T04:47:12.955Z,52.83
2019-06-01T04:49:42.371Z,52.67
2019-06-01T04:52:13.451Z,52.77
2019-06-01T04:54:43.012Z,52.98
2019-06-01T04:57:13.056Z,52.69
2019-06-01T04:59:42.501Z,52.97
2019-06-01T05:02:13.161Z,52.93
2019-06-01T05:04:43.606Z,52.63
2019-06-01T05:07:13.575Z,52.43
2019-06-01T05:09:43.271Z,52.17
2019-06-01T05:12:13.655Z,52.16
2019-06-01T05:14:44.098Z,52.98
2019-06-01T05:17:15.107Z,53.44
2019-06-01T05:19:45.386Z,53.40
2019-06-01T05:22:15.130Z,54.23
2019-06-01T05:24:44.565Z,54.58
2019-06-01T05:27:15.159Z,55.16
2019-06-01T05:29:44.772Z,55.97
2019-06-01T05:32:14.650Z,56.42
2019-06-01T05:34:44.067Z,56.83
2019-06-01T05:37:14.265Z,57.34
2019-06-01T05:39:43.779Z,57.33
2019-06-01T05:42:13.196Z,58.31
2019-06-01T05:44:42.708Z,59.29
2019-06-01T05:47:12.279Z,59.25
2019-06-01T05:49:42.775Z,59.63
2019-06-01T05:52:14.961Z,58.68
2019-06-01T05:54:44.359Z,59.62
2019-06-01T05:57:14.705Z,60.24
2019-06-01T05:59:44.162Z,60.66
2019-06-01T06:02:13.576Z,60.89
2019-06-01T06:04:43.138Z,60.94
2019-06-01T06:07:12.889Z,61.10
2019-06-01T06:09:42.441Z,61.12
2019-06-01T06:12:15.315Z,61.14
2019-06-01T06:14:47.421Z,62.18
2019-06-01T06:17:19.540Z,62.18
2019-06-01T06:19:48.521Z,62.60
2019-06-01T06:22:18.279Z,62.90
2019-06-01T06:24:47.712Z,63.37
2019-06-01T06:27:17.168Z,63.46
2019-06-01T06:29:46.600Z,63.36
2019-06-01T06:32:17.072Z,63.65
2019-06-01T06:34:46.649Z,63.20
2019-06-01T06:37:16.068Z,63.29
2019-06-01T06:39:45.443Z,64.04
2019-06-01T06:42:16.074Z,62.91
2019-06-01T06:44:45.707Z,61.73
2019-06-01T06:47:15.070Z,61.50
2019-06-01T06:49:44.764Z,61.35
2019-06-01T06:52:15.190Z,61.31
2019-06-01T06:54:44.809Z,61.16
2019-06-01T06:57:14.222Z,61.21
2019-06-01T06:59:43.722Z,61.14
2019-06-01T07:02:13.143Z,60.83
2019-06-01T07:04:42.647Z,60.87
2019-06-01T07:07:14.868Z,61.14
2019-06-01T07:09:44.276Z,60.91
2019-06-01T07:12:13.667Z,61.80
2019-06-01T07:14:43.132Z,62.36
2019-06-01T07:17:15.875Z,62.69
2019-06-01T07:19:45.202Z,62.79
2019-06-01T07:22:16.965Z,63.72
2019-06-01T07:24:45.828Z,64.38
2019-06-01T07:27:15.204Z,64.52
2019-06-01T07:29:44.717Z,65.41
2019-06-01T07:32:14.056Z,66.57
2019-06-01T07:34:43.600Z,66.59
2019-06-01T07:37:13.111Z,67.09
2019-06-01T07:39:42.451Z,67.29
2019-06-01T07:42:13.895Z,67.73
2019-06-01T07:44:43.393Z,67.24
2019-06-01T07:47:12.772Z,67.26
2019-06-01T07:49:42.339Z,67.58
2019-06-01T07:52:14.739Z,67.73
2019-06-01T07:54:44.333Z,67.97
2019-06-01T07:57:13.782Z,67.95
2019-06-01T07:59:43.369Z,68.19
2019-06-01T08:02:12.737Z,68.07
2019-06-01T08:04:53.147Z,67.58
2019-06-01T08:07:13.668Z,67.20
2019-06-01T08:09:43.037Z,67.17
2019-06-01T08:12:12.503Z,66.66
2019-06-01T08:14:42.058Z,66.21
2019-06-01T08:17:12.207Z,65.67
2019-06-01T08:19:42.324Z,64.67
2019-06-01T08:22:11.961Z,64.31
2019-06-01T08:24:41.391Z,63.66
2019-06-01T08:27:10.958Z,62.23
2019-06-01T08:29:40.370Z,61.73
2019-06-01T08:32:09.923Z,61.40
2019-06-01T08:34:39.799Z,60.05
2019-06-01T08:37:09.391Z,60.78
2019-06-01T08:39:39.037Z,60.78
2019-06-01T08:42:08.482Z,60.08
2019-06-01T08:44:37.893Z,59.89
2019-06-01T08:47:07.349Z,59.50
2019-06-01T08:49:36.760Z,60.34
2019-06-01T08:52:10.431Z,59.54
2019-06-01T08:54:39.909Z,59.92
2019-06-01T08:57:10.616Z,59.26
2019-06-01T08:59:42.954Z,58.15
2019-06-01T09:02:12.435Z,58.53
2019-06-01T09:04:42.084Z,58.29
2019-06-01T09:07:11.831Z,57.28
2019-06-01T09:09:41.308Z,57.58
2019-06-01T09:12:11.168Z,56.97
2019-06-01T09:14:42.886Z,56.55
2019-06-01T09:17:18.348Z,56.36
2019-06-01T09:19:45.449Z,57.18
2019-06-01T09:22:15.332Z,56.60
2019-06-01T09:24:44.678Z,56.72
2019-06-01T09:27:14.562Z,57.61
2019-06-01T09:29:44.833Z,57.66
2019-06-01T09:32:21.413Z,57.78
2019-06-01T09:34:48.531Z,57.84
2019-06-01T09:37:17.982Z,58.35
2019-06-01T09:39:47.377Z,59.16
2019-06-01T09:42:16.991Z,59.54
2019-06-01T09:44:46.390Z,59.73
2019-06-01T09:47:15.890Z,60.34
2019-06-01T09:49:45.357Z,59.93
2019-06-01T09:52:14.750Z,60.15
2019-06-01T09:54:44.122Z,59.70
2019-06-01T09:57:13.557Z,59.81
2019-06-01T09:59:43.043Z,59.29
2019-06-01T10:02:12.442Z,59.09
2019-06-01T10:04:44.139Z,58.32
2019-06-01T10:07:13.570Z,58.48
2019-06-01T10:09:42.957Z,57.52
2019-06-01T10:12:12.384Z,57.52
2019-06-01T10:14:42.455Z,57.90
2019-06-01T10:17:12.128Z,58.08
2019-06-01T10:19:43.016Z,57.21
2019-06-01T10:22:12.726Z,57.12
2019-06-01T10:24:43.034Z,57.52
2019-06-01T10:27:12.479Z,57.35
2019-06-01T10:29:43.832Z,58.07
2019-06-01T10:32:13.241Z,58.53
2019-06-01T10:34:42.926Z,58.53
2019-06-01T10:37:12.357Z,59.12
2019-06-01T10:39:41.901Z,60.04
2019-06-01T10:42:11.355Z,59.50
2019-06-01T10:44:45.218Z,59.74
2019-06-01T10:47:12.091Z,60.44
2019-06-01T10:49:44.797Z,60.51
2019-06-01T10:52:14.187Z,60.34
2019-06-01T10:54:43.627Z,60.98
2019-06-01T10:57:13.044Z,62.42
2019-06-01T10:59:42.725Z,64.47
2019-06-01T11:02:12.194Z,64.92
2019-06-01T11:04:43.219Z,64.53
2019-06-01T11:07:12.791Z,65.54
2019-06-01T11:09:43.218Z,65.70
2019-06-01T11:12:12.723Z,66.23
2019-06-01T11:14:43.321Z,67.39
2019-06-01T11:17:12.804Z,67.47
2019-06-01T11:19:45.260Z,67.72
2019-06-01T11:22:15.018Z,67.85
2019-06-01T11:24:44.506Z,69.03
2019-06-01T11:27:14.589Z,69.55
2019-06-01T11:29:50.845Z,69.47
2019-06-01T11:32:15.113Z,68.89
2019-06-01T11:34:44.614Z,69.04
2019-06-01T11:37:15.498Z,68.65
2019-06-01T11:39:45.218Z,68.41
2019-06-01T11:42:14.784Z,68.09
2019-06-01T11:44:44.903Z,67.10
2019-06-01T11:47:14.464Z,67.18
2019-06-01T11:49:45.058Z,66.11
2019-06-01T11:52:14.490Z,64.58
2019-06-01T11:54:46.930Z,63.85
2019-06-01T11:57:16.389Z,62.44
2019-06-01T11:59:45.939Z,61.26
2019-06-01T12:02:15.325Z,61.16
2019-06-01T12:04:46.256Z,61.65
2019-06-01T12:07:18.141Z,61.52
2019-06-01T12:09:47.530Z,61.59
2019-06-01T12:12:17.092Z,60.51
2019-06-01T12:14:53.624Z,61.77
2019-06-01T12:17:23.048Z,62.00
2019-06-01T12:19:55.274Z,62.10
2019-06-01T12:22:24.901Z,62.31
2019-06-01T12:24:55.031Z,60.52
2019-06-01T12:27:24.527Z,60.40
2019-06-01T12:30:10.715Z,59.16
2019-06-01T12:32:41.797Z,58.40
2019-06-01T12:35:11.690Z,57.23
2019-06-01T12:38:02.012Z,57.32
2019-06-01T12:40:12.870Z,57.95
2019-06-01T12:42:43.764Z,56.98
2019-06-01T12:45:22.674Z,57.42
2019-06-01T12:47:55.251Z,57.57
2019-06-01T12:50:22.418Z,57.34
2019-06-01T12:52:52.790Z,57.77
2019-06-01T12:55:22.262Z,56.82
2019-06-01T12:57:51.781Z,56.72
2019-06-01T13:00:21.495Z,57.52
2019-06-01T13:03:03.349Z,57.37
2019-06-01T13:05:22.150Z,56.91
2019-06-01T13:08:00.722Z,57.18
2019-06-01T13:10:22.782Z,57.59
2019-06-01T13:12:52.409Z,58.27
2019-06-01T13:15:21.970Z,58.39
2019-06-01T13:17:51.567Z,58.89
2019-06-01T13:20:26.946Z,59.08
2019-06-01T13:22:59.184Z,59.29
2019-06-01T13:25:29.354Z,60.12
2019-06-01T13:27:58.859Z,58.94
2019-06-01T13:30:28.316Z,59.63
2019-06-01T13:33:00.979Z,59.63
2019-06-01T13:35:30.468Z,60.01
2019-06-01T13:38:11.521Z,59.53
2019-06-01T13:40:31.124Z,59.63
2019-06-01T13:43:01.167Z,59.53
2019-06-01T13:45:33.185Z,59.42
2019-06-01T13:48:03.025Z,60.19
2019-06-01T13:50:32.480Z,60.37
2019-06-01T13:53:01.963Z,60.50
2019-06-01T13:55:31.492Z,60.68
2019-06-01T13:58:01.171Z,60.78
2019-06-01T14:00:31.026Z,61.05
2019-06-01T14:03:00.759Z,61.78
2019-06-01T14:05:31.075Z,62.40
2019-06-01T14:08:00.496Z,62.99
2019-06-01T14:10:29.947Z,62.62
2019-06-01T14:12:59.359Z,62.20
2019-06-01T14:15:28.833Z,61.91
2019-06-01T14:17:58.753Z,61.74
2019-06-01T14:20:28.309Z,61.00
2019-06-01T14:22:57.967Z,59.70
2019-06-01T14:25:27.825Z,59.56
2019-06-01T14:27:57.234Z,59.33
2019-06-01T14:30:26.674Z,58.26
2019-06-01T14:32:56.947Z,59.14
2019-06-01T14:35:26.465Z,59.37
2019-06-01T14:37:58.692Z,59.43
2019-06-01T14:40:28.089Z,59.40
2019-06-01T14:42:57.842Z,58.00
2019-06-01T14:45:27.209Z,58.85
2019-06-01T14:47:57.663Z,59.56
2019-06-01T14:50:27.249Z,59.45
2019-06-01T14:52:57.890Z,57.83
2019-06-01T14:55:27.434Z,57.71
2019-06-01T14:57:58.415Z,57.95
2019-06-01T15:00:27.973Z,57.95
2019-06-01T15:02:58.409Z,57.92
2019-06-01T15:05:28.553Z,58.00
2019-06-01T15:07:59.030Z,58.21
2019-06-01T15:10:31.562Z,59.08
2019-06-01T15:13:03.288Z,59.97
2019-06-01T15:15:32.384Z,60.66
2019-06-01T15:18:05.163Z,60.44
2019-06-01T15:20:33.675Z,59.82
2019-06-01T15:23:03.709Z,59.11
2019-06-01T15:25:33.502Z,57.69
2019-06-01T15:28:04.045Z,56.05
2019-06-01T15:30:34.026Z,56.01
2019-06-01T15:33:03.518Z,55.86
2019-06-01T15:35:33.131Z,55.90
2019-06-01T15:38:04.702Z,56.19
2019-06-01T15:40:34.289Z,56.93
2019-06-01T15:43:03.877Z,57.25
2019-06-01T15:45:33.337Z,57.49
2019-06-01T15:48:02.848Z,57.76
2019-06-01T15:50:32.307Z,57.43
2019-06-01T15:53:01.680Z,57.45
2019-06-01T15:55:31.212Z,54.93
2019-06-01T15:58:00.756Z,54.32
2019-06-01T16:00:30.216Z,53.47
2019-06-01T16:03:01.044Z,52.97
2019-06-01T16:05:30.871Z,51.08
2019-06-01T16:08:01.603Z,48.88
2019-06-01T16:10:34.264Z,47.53
2019-06-01T16:13:05.062Z,45.43
2019-06-01T16:15:34.517Z,45.93
2019-06-01T16:18:06.281Z,45.30
2019-06-01T16:20:35.802Z,44.88
2019-06-01T16:23:05.465Z,45.16
2019-06-01T16:25:35.183Z,45.50
2019-06-01T16:28:05.722Z,44.15
2019-06-01T16:30:36.448Z,43.71
2019-06-01T16:33:06.076Z,45.22
2019-06-01T16:35:35.490Z,45.41
2019-06-01T16:38:05.888Z,46.17
2019-06-01T16:40:35.390Z,45.14
2019-06-01T16:43:05.710Z,45.28
2019-06-01T16:45:35.294Z,46.60
2019-06-01T16:48:07.980Z,47.65
2019-06-01T16:50:40.212Z,48.80
2019-06-01T16:53:09.615Z,48.58
2019-06-01T16:55:39.113Z,49.28
2019-06-01T16:58:10.052Z,49.40
2019-06-01T17:00:39.461Z,49.15
2019-06-01T17:03:11.284Z,49.42
2019-06-01T17:05:41.361Z,50.04
2019-06-01T17:08:10.791Z,50.69
2019-06-01T17:10:42.216Z,51.30
2019-06-01T17:13:12.065Z,51.80
2019-06-01T17:15:44.122Z,52.68
2019-06-01T17:18:16.984Z,52.94
2019-06-01T17:21:20.641Z,53.28
2019-06-01T17:23:50.888Z,54.21
2019-06-01T17:26:28.172Z,54.15
2019-06-01T17:28:58.019Z,54.24
2019-06-01T17:31:31.738Z,54.75
2019-06-01T17:34:04.650Z,54.67
2019-06-01T17:36:38.873Z,54.88
2019-06-01T17:39:12.277Z,54.95
2019-06-01T17:41:49.538Z,53.82
2019-06-01T17:51:06.610Z,50.29
2019-06-01T17:53:36.257Z,48.69
2019-06-01T17:56:08.166Z,46.61
2019-06-01T17:58:38.012Z,46.36
2019-06-01T18:01:08.114Z,45.18
2019-06-01T18:03:37.642Z,44.88
2019-06-01T18:06:07.844Z,45.69
2019-06-01T18:08:37.311Z,47.29
2019-06-01T18:11:08.087Z,48.75
2019-06-01T18:13:42.043Z,50.25
2019-06-01T18:16:13.041Z,51.17
2019-06-01T18:18:42.472Z,51.01
2019-06-01T18:21:12.980Z,50.95
2019-06-01T18:23:42.366Z,50.00
2019-06-01T18:26:13.181Z,49.60
2019-06-01T18:28:43.215Z,49.52
2019-06-01T18:31:17.628Z,49.76
2019-06-01T18:33:47.483Z,49.54
2019-06-01T18:36:16.995Z,49.58
2019-06-01T18:38:46.510Z,50.32
2019-06-01T18:41:19.817Z,51.36
2019-06-01T18:43:47.328Z,52.50
2019-06-01T18:46:17.127Z,53.63
2019-06-01T18:48:47.817Z,54.86
2019-06-01T18:51:17.297Z,55.69
2019-06-01T18:53:46.782Z,56.62
2019-06-01T18:56:16.210Z,57.32
2019-06-01T18:58:45.633Z,57.95
2019-06-01T19:01:21.024Z,58.74
2019-06-01T19:03:48.900Z,59.46
2019-06-01T19:06:18.367Z,60.02
2019-06-01T19:08:47.929Z,60.51
2019-06-01T19:11:30.138Z,60.91
2019-06-01T19:13:48.418Z,61.20
2019-06-01T19:16:21.632Z,61.49
2019-06-01T19:18:51.024Z,61.86
2019-06-01T19:21:20.400Z,62.04
2019-06-01T19:23:49.883Z,62.39
2019-06-01T19:26:19.760Z,62.54
2019-06-01T19:28:49.733Z,62.71
2019-06-01T19:31:21.971Z,62.99
2019-06-01T19:33:51.384Z,63.34
2019-06-01T19:36:21.125Z,63.56
2019-06-01T19:38:51.112Z,63.78
2019-06-01T19:41:20.525Z,63.91
2019-06-01T19:43:49.896Z,64.04
2019-06-01T19:46:22.113Z,64.04
2019-06-01T19:48:51.454Z,63.81
2019-06-01T19:51:20.924Z,64.02
2019-06-01T19:53:50.442Z,64.00
2019-06-01T19:56:20.555Z,64.14
2019-06-01T19:58:51.093Z,64.34
2019-06-01T20:01:20.573Z,64.62
2019-06-01T20:03:49.948Z,64.85
2019-06-01T20:06:19.407Z,65.10
2019-06-01T20:08:48.849Z,65.42
2019-06-01T20:11:19.361Z,65.70
2019-06-01T20:13:56.115Z,65.92
2019-06-01T20:16:25.956Z,66.12
2019-06-01T20:19:00.386Z,66.38
2019-06-01T20:21:29.892Z,66.57
2019-06-01T20:23:59.311Z,66.91
2019-06-01T20:26:40.374Z,67.13
2019-06-01T20:29:15.601Z,67.22
2019-06-01T20:32:27.558Z,67.38
2019-06-01T20:34:59.131Z,67.47
2019-06-01T20:37:28.604Z,67.64
2019-06-01T20:39:58.082Z,67.60
2019-06-01T20:42:32.282Z,67.78
2019-06-01T20:44:58.793Z,68.01
2019-06-01T20:47:28.230Z,68.02
2019-06-01T20:50:01.263Z,68.03
2019-06-01T20:52:30.674Z,68.09
2019-06-01T20:55:09.187Z,68.20
2019-06-01T20:57:40.400Z,68.46
2019-06-01T21:00:10.700Z,68.56
2019-06-01T21:02:55.184Z,68.70
2019-06-01T21:05:31.669Z,68.80
2019-06-01T21:08:01.086Z,69.02
2019-06-01T21:10:30.660Z,69.05
2019-06-01T21:13:00.168Z,69.23
2019-06-01T21:15:44.498Z,69.28
2019-06-01T21:18:09.465Z,69.38
2019-06-01T21:20:38.882Z,69.50
2019-06-01T21:23:08.441Z,69.66
2019-06-01T21:25:37.855Z,69.79
2019-06-01T21:28:07.412Z,69.87
2019-06-01T21:30:37.413Z,69.92
2019-06-01T21:33:06.885Z,70.15
2019-06-01T21:35:36.408Z,70.23
2019-06-01T21:38:06.106Z,70.37
2019-06-01T21:40:35.692Z,70.56
2019-06-01T21:43:22.905Z,70.75
2019-06-01T21:45:36.488Z,70.93
2019-06-01T21:48:06.080Z,71.07
2019-06-01T21:50:35.583Z,71.14
2019-06-01T21:53:05.318Z,71.07
2019-06-01T21:55:35.079Z,71.13
2019-06-01T21:58:04.557Z,71.07
2019-06-01T22:00:39.016Z,71.15
2019-06-01T22:03:08.932Z,71.17
2019-06-01T22:05:40.160Z,71.26
2019-06-01T22:08:09.803Z,71.24
2019-06-01T22:10:39.186Z,71.25
2019-06-01T22:13:18.732Z,71.40
2019-06-01T22:15:40.182Z,71.54
2019-06-01T22:18:09.606Z,71.51
2019-06-01T22:20:41.517Z,71.65
2019-06-01T22:23:11.989Z,71.76
2019-06-01T22:25:41.646Z,71.84
2019-06-01T22:28:11.513Z,71.93
2019-06-01T22:30:44.192Z,72.08
2019-06-01T22:33:13.636Z,72.18
2019-06-01T22:35:44.461Z,72.31
2019-06-01T22:38:13.989Z,72.41
2019-06-01T22:40:43.402Z,72.63
2019-06-01T22:43:12.818Z,72.64
2019-06-01T22:45:42.375Z,72.86
2019-06-01T22:48:11.901Z,72.91
2019-06-01T22:50:41.379Z,73.07
2019-06-01T22:53:10.881Z,73.23
2019-06-01T22:55:40.288Z,73.40
2019-06-01T22:58:09.926Z,73.62
2019-06-01T23:00:41.225Z,73.81
2019-06-01T23:03:10.754Z,74.11
2019-06-01T23:05:40.183Z,74.31
2019-06-01T23:08:10.039Z,74.46
2019-06-01T23:10:39.494Z,74.64
2019-06-01T23:13:09.094Z,74.70
2019-06-01T23:15:40.248Z,74.84
2019-06-01T23:18:09.912Z,74.93
2019-06-01T23:20:39.410Z,75.01
2019-06-01T23:23:09.079Z,75.08
2019-06-01T23:25:38.451Z,75.13
2019-06-01T23:28:10.001Z,75.18
2019-06-01T23:30:41.277Z,75.23
2019-06-01T23:33:10.888Z,75.17
2019-06-01T23:35:40.317Z,75.21
2019-06-01T23:38:22.508Z,75.15
2019-06-01T23:40:51.999Z,75.02
2019-06-01T23:43:22.615Z,74.91
2019-06-01T23:45:52.192Z,74.76
2019-06-01T23:48:23.020Z,74.50
2019-06-01T23:50:52.639Z,74.38
2019-06-01T23:53:23.340Z,74.42
2019-06-01T23:55:52.837Z,74.33
2019-06-01T23:58:22.198Z,74.21
